sensor_id;sensor_type;location;lat;lon;timestamp;P1;durP1;ratioP1;P2;durP2;ratioP2
20776;SDS011;10548;47.504;8.248;2023-10-13T00:00:30;17.73;;;6.87;;
20776;SDS011;10548;47.504;8.248;2023-10-13T00:03:03;9.17;;;5.57;;
20776;SDS011;10548;47.504;8.248;2023-10-13T00:05:32;11.63;;;5.80;;
20776;SDS011;10548;47.504;8.248;2023-10-13T00:08:00;18.43;;;6.40;;
20776;SDS011;10548;47.504;8.248;2023-10-13T00:10:32;11.53;;;4.93;;
20776;SDS011;10548;47.504;8.248;2023-10-13T00:13:00;12.50;;;5.87;;
20776;SDS011;10548;47.504;8.248;2023-10-13T00:15:42;16.90;;;5.83;;
20776;SDS011;10548;47.504;8.248;2023-10-13T00:18:27;12.47;;;6.13;;
20776;SDS011;10548;47.504;8.248;2023-10-13T00:21:00;14.00;;;5.80;;
20776;SDS011;10548;47.504;8.248;2023-10-13T00:23:39;14.47;;;5.53;;
20776;SDS011;10548;47.504;8.248;2023-10-13T00:26:20;9.57;;;5.23;;
20776;SDS011;10548;47.504;8.248;2023-10-13T00:28:57;11.53;;;5.97;;
20776;SDS011;10548;47.504;8.248;2023-10-13T00:31:35;12.30;;;5.27;;
20776;SDS011;10548;47.504;8.248;2023-10-13T00:34:05;13.77;;;6.40;;
20776;SDS011;10548;47.504;8.248;2023-10-13T00:36:46;10.73;;;6.20;;
20776;SDS011;10548;47.504;8.248;2023-10-13T00:39:33;13.83;;;5.57;;
20776;SDS011;10548;47.504;8.248;2023-10-13T00:42:04;18.70;;;6.70;;
20776;SDS011;10548;47.504;8.248;2023-10-13T00:44:44;14.20;;;6.43;;
20776;SDS011;10548;47.504;8.248;2023-10-13T00:47:16;12.30;;;6.17;;
20776;SDS011;10548;47.504;8.248;2023-10-13T00:50:05;18.63;;;7.33;;
20776;SDS011;10548;47.504;8.248;2023-10-13T00:52:37;17.57;;;6.97;;
20776;SDS011;10548;47.504;8.248;2023-10-13T00:55:09;12.93;;;6.47;;
20776;SDS011;10548;47.504;8.248;2023-10-13T00:57:38;14.20;;;6.27;;
20776;SDS011;10548;47.504;8.248;2023-10-13T01:00:08;14.37;;;6.43;;
20776;SDS011;10548;47.504;8.248;2023-10-13T01:02:55;10.50;;;5.50;;
20776;SDS011;10548;47.504;8.248;2023-10-13T01:05:23;16.80;;;6.07;;
20776;SDS011;10548;47.504;8.248;2023-10-13T01:07:51;18.53;;;6.63;;
20776;SDS011;10548;47.504;8.248;2023-10-13T01:10:22;13.23;;;5.77;;
20776;SDS011;10548;47.504;8.248;2023-10-13T01:12:55;14.00;;;5.67;;
20776;SDS011;10548;47.504;8.248;2023-10-13T01:15:23;10.67;;;5.80;;
20776;SDS011;10548;47.504;8.248;2023-10-13T01:18:09;18.93;;;6.83;;
20776;SDS011;10548;47.504;8.248;2023-10-13T01:20:41;13.00;;;5.70;;
20776;SDS011;10548;47.504;8.248;2023-10-13T01:23:12;14.30;;;6.27;;
20776;SDS011;10548;47.504;8.248;2023-10-13T01:25:47;17.37;;;6.83;;
20776;SDS011;10548;47.504;8.248;2023-10-13T01:28:15;15.00;;;5.70;;
20776;SDS011;10548;47.504;8.248;2023-10-13T01:30:43;14.03;;;6.40;;
20776;SDS011;10548;47.504;8.248;2023-10-13T01:33:17;16.23;;;6.07;;
20776;SDS011;10548;47.504;8.248;2023-10-13T01:35:53;12.97;;;6.10;;
20776;SDS011;10548;47.504;8.248;2023-10-13T01:38:23;15.00;;;6.27;;
20776;SDS011;10548;47.504;8.248;2023-10-13T01:40:55;12.23;;;6.30;;
20776;SDS011;10548;47.504;8.248;2023-10-13T01:43:25;10.33;;;6.00;;
20776;SDS011;10548;47.504;8.248;2023-10-13T01:45:53;18.73;;;6.67;;
20776;SDS011;10548;47.504;8.248;2023-10-13T01:48:21;13.27;;;6.20;;
20776;SDS011;10548;47.504;8.248;2023-10-13T01:50:48;9.07;;;5.40;;
20776;SDS011;10548;47.504;8.248;2023-10-13T01:53:22;9.43;;;5.80;;
20776;SDS011;10548;47.504;8.248;2023-10-13T01:55:50;14.43;;;6.33;;
20776;SDS011;10548;47.504;8.248;2023-10-13T01:58:17;13.77;;;5.90;;
20776;SDS011;10548;47.504;8.248;2023-10-13T02:00:50;15.83;;;6.13;;
20776;SDS011;10548;47.504;8.248;2023-10-13T02:03:17;13.73;;;6.40;;
20776;SDS011;10548;47.504;8.248;2023-10-13T02:05:45;17.03;;;6.63;;
20776;SDS011;10548;47.504;8.248;2023-10-13T02:08:18;8.90;;;5.40;;
20776;SDS011;10548;47.504;8.248;2023-10-13T02:10:53;16.47;;;6.60;;
20776;SDS011;10548;47.504;8.248;2023-10-13T02:13:23;12.83;;;5.90;;
20776;SDS011;10548;47.504;8.248;2023-10-13T02:15:56;13.43;;;6.73;;
20776;SDS011;10548;47.504;8.248;2023-10-13T02:18:24;10.13;;;5.70;;
20776;SDS011;10548;47.504;8.248;2023-10-13T02:21:01;12.97;;;6.17;;
20776;SDS011;10548;47.504;8.248;2023-10-13T02:23:31;11.60;;;6.00;;
20776;SDS011;10548;47.504;8.248;2023-10-13T02:26:01;15.63;;;5.87;;
20776;SDS011;10548;47.504;8.248;2023-10-13T02:28:38;12.73;;;6.00;;
20776;SDS011;10548;47.504;8.248;2023-10-13T02:31:05;13.03;;;5.90;;
20776;SDS011;10548;47.504;8.248;2023-10-13T02:33:34;11.13;;;5.90;;
20776;SDS011;10548;47.504;8.248;2023-10-13T02:36:02;11.10;;;6.20;;
20776;SDS011;10548;47.504;8.248;2023-10-13T02:38:31;14.03;;;4.90;;
20776;SDS011;10548;47.504;8.248;2023-10-13T02:41:12;15.37;;;6.13;;
20776;SDS011;10548;47.504;8.248;2023-10-13T02:43:46;11.10;;;6.07;;
20776;SDS011;10548;47.504;8.248;2023-10-13T02:46:13;9.90;;;5.63;;
20776;SDS011;10548;47.504;8.248;2023-10-13T02:48:42;11.47;;;5.37;;
20776;SDS011;10548;47.504;8.248;2023-10-13T02:51:12;9.37;;;5.60;;
20776;SDS011;10548;47.504;8.248;2023-10-13T02:53:43;10.77;;;5.77;;
20776;SDS011;10548;47.504;8.248;2023-10-13T02:56:19;12.53;;;5.63;;
20776;SDS011;10548;47.504;8.248;2023-10-13T02:58:50;11.17;;;5.83;;
20776;SDS011;10548;47.504;8.248;2023-10-13T03:01:37;16.53;;;6.37;;
20776;SDS011;10548;47.504;8.248;2023-10-13T03:04:04;12.27;;;6.43;;
20776;SDS011;10548;47.504;8.248;2023-10-13T03:06:36;13.10;;;7.17;;
20776;SDS011;10548;47.504;8.248;2023-10-13T03:09:07;16.60;;;6.43;;
20776;SDS011;10548;47.504;8.248;2023-10-13T03:11:45;11.13;;;6.30;;
20776;SDS011;10548;47.504;8.248;2023-10-13T03:14:20;16.93;;;6.03;;
20776;SDS011;10548;47.504;8.248;2023-10-13T03:16:58;14.53;;;6.57;;
20776;SDS011;10548;47.504;8.248;2023-10-13T03:19:35;16.63;;;5.93;;
20776;SDS011;10548;47.504;8.248;2023-10-13T03:22:07;14.47;;;6.70;;
20776;SDS011;10548;47.504;8.248;2023-10-13T03:24:39;13.27;;;6.63;;
20776;SDS011;10548;47.504;8.248;2023-10-13T03:27:16;12.33;;;6.33;;
20776;SDS011;10548;47.504;8.248;2023-10-13T03:29:49;16.50;;;6.80;;
20776;SDS011;10548;47.504;8.248;2023-10-13T03:32:21;15.37;;;6.50;;
20776;SDS011;10548;47.504;8.248;2023-10-13T03:34:53;10.80;;;6.63;;
20776;SDS011;10548;47.504;8.248;2023-10-13T03:37:46;14.90;;;6.00;;
20776;SDS011;10548;47.504;8.248;2023-10-13T03:40:14;13.43;;;6.23;;
20776;SDS011;10548;47.504;8.248;2023-10-13T03:43:07;17.40;;;6.53;;
20776;SDS011;10548;47.504;8.248;2023-10-13T03:45:41;11.00;;;5.83;;
20776;SDS011;10548;47.504;8.248;2023-10-13T03:48:10;12.33;;;6.47;;
20776;SDS011;10548;47.504;8.248;2023-10-13T03:51:00;9.80;;;5.80;;
20776;SDS011;10548;47.504;8.248;2023-10-13T03:53:37;17.67;;;6.73;;
20776;SDS011;10548;47.504;8.248;2023-10-13T03:56:19;12.50;;;6.67;;
20776;SDS011;10548;47.504;8.248;2023-10-13T03:58:59;12.83;;;6.97;;
20776;SDS011;10548;47.504;8.248;2023-10-13T04:01:47;14.33;;;6.20;;
20776;SDS011;10548;47.504;8.248;2023-10-13T04:04:32;16.50;;;7.17;;
20776;SDS011;10548;47.504;8.248;2023-10-13T04:07:15;14.07;;;6.63;;
20776;SDS011;10548;47.504;8.248;2023-10-13T04:10:02;16.27;;;6.60;;
20776;SDS011;10548;47.504;8.248;2023-10-13T04:12:56;19.23;;;6.50;;
20776;SDS011;10548;47.504;8.248;2023-10-13T04:15:42;14.23;;;6.73;;
20776;SDS011;10548;47.504;8.248;2023-10-13T04:18:30;16.13;;;7.07;;
20776;SDS011;10548;47.504;8.248;2023-10-13T04:21:23;13.37;;;6.23;;
20776;SDS011;10548;47.504;8.248;2023-10-13T04:24:16;13.60;;;6.40;;
20776;SDS011;10548;47.504;8.248;2023-10-13T04:27:04;12.97;;;6.23;;
20776;SDS011;10548;47.504;8.248;2023-10-13T04:29:50;10.93;;;6.10;;
20776;SDS011;10548;47.504;8.248;2023-10-13T04:32:43;14.73;;;6.30;;
20776;SDS011;10548;47.504;8.248;2023-10-13T04:35:32;15.37;;;7.30;;
20776;SDS011;10548;47.504;8.248;2023-10-13T04:38:03;11.53;;;6.27;;
20776;SDS011;10548;47.504;8.248;2023-10-13T04:40:44;13.67;;;6.33;;
20776;SDS011;10548;47.504;8.248;2023-10-13T04:43:25;14.00;;;6.43;;
20776;SDS011;10548;47.504;8.248;2023-10-13T04:46:21;12.60;;;6.00;;
20776;SDS011;10548;47.504;8.248;2023-10-13T04:49:02;11.23;;;6.10;;
20776;SDS011;10548;47.504;8.248;2023-10-13T04:51:37;11.63;;;5.73;;
20776;SDS011;10548;47.504;8.248;2023-10-13T04:54:19;14.50;;;6.23;;
20776;SDS011;10548;47.504;8.248;2023-10-13T04:56:53;14.00;;;7.43;;
20776;SDS011;10548;47.504;8.248;2023-10-13T04:59:40;14.23;;;6.83;;
20776;SDS011;10548;47.504;8.248;2023-10-13T05:02:27;15.90;;;6.23;;
20776;SDS011;10548;47.504;8.248;2023-10-13T05:05:24;15.23;;;6.77;;
20776;SDS011;10548;47.504;8.248;2023-10-13T05:08:11;15.63;;;7.20;;
20776;SDS011;10548;47.504;8.248;2023-10-13T05:11:02;13.00;;;7.17;;
20776;SDS011;10548;47.504;8.248;2023-10-13T05:13:48;11.23;;;6.37;;
20776;SDS011;10548;47.504;8.248;2023-10-13T05:16:34;12.97;;;6.17;;
20776;SDS011;10548;47.504;8.248;2023-10-13T05:19:20;11.30;;;6.37;;
20776;SDS011;10548;47.504;8.248;2023-10-13T05:22:06;13.23;;;6.50;;
20776;SDS011;10548;47.504;8.248;2023-10-13T05:24:59;12.47;;;6.83;;
20776;SDS011;10548;47.504;8.248;2023-10-13T05:27:45;12.30;;;5.90;;
20776;SDS011;10548;47.504;8.248;2023-10-13T05:30:33;9.23;;;5.50;;
20776;SDS011;10548;47.504;8.248;2023-10-13T05:33:18;11.93;;;6.23;;
20776;SDS011;10548;47.504;8.248;2023-10-13T05:36:09;10.53;;;5.93;;
20776;SDS011;10548;47.504;8.248;2023-10-13T05:38:55;9.90;;;5.60;;
20776;SDS011;10548;47.504;8.248;2023-10-13T05:41:41;16.27;;;6.27;;
20776;SDS011;10548;47.504;8.248;2023-10-13T05:44:27;16.67;;;5.77;;
20776;SDS011;10548;47.504;8.248;2023-10-13T05:47:04;10.90;;;5.60;;
20776;SDS011;10548;47.504;8.248;2023-10-13T05:50:10;10.63;;;5.33;;
20776;SDS011;10548;47.504;8.248;2023-10-13T05:53:06;14.63;;;5.43;;
20776;SDS011;10548;47.504;8.248;2023-10-13T05:55:51;13.10;;;5.10;;
20776;SDS011;10548;47.504;8.248;2023-10-13T05:58:36;12.60;;;5.30;;
20776;SDS011;10548;47.504;8.248;2023-10-13T06:01:25;12.40;;;5.57;;
20776;SDS011;10548;47.504;8.248;2023-10-13T06:04:11;10.90;;;5.80;;
20776;SDS011;10548;47.504;8.248;2023-10-13T06:06:57;18.63;;;6.73;;
20776;SDS011;10548;47.504;8.248;2023-10-13T06:09:42;11.73;;;5.30;;
20776;SDS011;10548;47.504;8.248;2023-10-13T06:12:28;16.07;;;7.00;;
20776;SDS011;10548;47.504;8.248;2023-10-13T06:15:14;11.63;;;5.30;;
20776;SDS011;10548;47.504;8.248;2023-10-13T06:18:10;15.40;;;6.27;;
20776;SDS011;10548;47.504;8.248;2023-10-13T06:20:55;11.33;;;5.93;;
20776;SDS011;10548;47.504;8.248;2023-10-13T06:23:41;10.90;;;5.87;;
20776;SDS011;10548;47.504;8.248;2023-10-13T06:26:27;13.80;;;6.50;;
20776;SDS011;10548;47.504;8.248;2023-10-13T06:29:12;18.40;;;6.93;;
20776;SDS011;10548;47.504;8.248;2023-10-13T06:31:47;17.33;;;7.40;;
20776;SDS011;10548;47.504;8.248;2023-10-13T06:34:15;12.83;;;6.37;;
20776;SDS011;10548;47.504;8.248;2023-10-13T06:36:42;19.07;;;6.83;;
20776;SDS011;10548;47.504;8.248;2023-10-13T06:39:13;17.03;;;7.07;;
20776;SDS011;10548;47.504;8.248;2023-10-13T06:41:58;14.83;;;6.53;;
20776;SDS011;10548;47.504;8.248;2023-10-13T06:44:26;13.53;;;7.03;;
20776;SDS011;10548;47.504;8.248;2023-10-13T06:46:58;15.03;;;6.90;;
20776;SDS011;10548;47.504;8.248;2023-10-13T06:49:31;13.97;;;5.90;;
20776;SDS011;10548;47.504;8.248;2023-10-13T06:52:05;14.53;;;6.40;;
20776;SDS011;10548;47.504;8.248;2023-10-13T06:54:33;15.03;;;6.90;;
20776;SDS011;10548;47.504;8.248;2023-10-13T06:57:01;17.53;;;7.97;;
20776;SDS011;10548;47.504;8.248;2023-10-13T06:59:30;18.77;;;7.23;;
20776;SDS011;10548;47.504;8.248;2023-10-13T07:01:59;13.57;;;6.40;;
20776;SDS011;10548;47.504;8.248;2023-10-13T07:04:51;13.40;;;6.83;;
20776;SDS011;10548;47.504;8.248;2023-10-13T07:07:23;14.90;;;7.03;;
20776;SDS011;10548;47.504;8.248;2023-10-13T07:09:51;15.33;;;7.03;;
20776;SDS011;10548;47.504;8.248;2023-10-13T07:12:24;16.50;;;6.50;;
20776;SDS011;10548;47.504;8.248;2023-10-13T07:14:59;21.57;;;6.80;;
20776;SDS011;10548;47.504;8.248;2023-10-13T07:17:50;23.03;;;7.53;;
20776;SDS011;10548;47.504;8.248;2023-10-13T07:20:21;18.87;;;7.33;;
20776;SDS011;10548;47.504;8.248;2023-10-13T07:22:51;14.17;;;6.63;;
20776;SDS011;10548;47.504;8.248;2023-10-13T07:25:30;22.20;;;6.93;;
20776;SDS011;10548;47.504;8.248;2023-10-13T07:27:59;16.80;;;7.17;;
20776;SDS011;10548;47.504;8.248;2023-10-13T07:30:27;20.10;;;6.67;;
20776;SDS011;10548;47.504;8.248;2023-10-13T07:32:54;14.00;;;5.33;;
20776;SDS011;10548;47.504;8.248;2023-10-13T07:35:24;13.03;;;5.60;;
20776;SDS011;10548;47.504;8.248;2023-10-13T07:37:53;10.00;;;5.47;;
20776;SDS011;10548;47.504;8.248;2023-10-13T07:40:21;13.73;;;5.97;;
20776;SDS011;10548;47.504;8.248;2023-10-13T07:43:09;14.80;;;5.10;;
20776;SDS011;10548;47.504;8.248;2023-10-13T07:45:37;13.83;;;5.93;;
20776;SDS011;10548;47.504;8.248;2023-10-13T07:48:05;12.23;;;5.33;;
20776;SDS011;10548;47.504;8.248;2023-10-13T07:51:07;13.27;;;5.30;;
20776;SDS011;10548;47.504;8.248;2023-10-13T07:53:49;15.10;;;6.37;;
20776;SDS011;10548;47.504;8.248;2023-10-13T07:56:17;12.47;;;5.37;;
20776;SDS011;10548;47.504;8.248;2023-10-13T07:58:45;9.23;;;4.50;;
20776;SDS011;10548;47.504;8.248;2023-10-13T08:01:42;12.53;;;4.80;;
20776;SDS011;10548;47.504;8.248;2023-10-13T08:04:09;10.17;;;4.17;;
20776;SDS011;10548;47.504;8.248;2023-10-13T08:06:41;13.93;;;4.23;;
20776;SDS011;10548;47.504;8.248;2023-10-13T08:09:11;14.80;;;4.53;;
20776;SDS011;10548;47.504;8.248;2023-10-13T08:11:56;13.10;;;4.57;;
20776;SDS011;10548;47.504;8.248;2023-10-13T08:14:24;8.43;;;4.63;;
20776;SDS011;10548;47.504;8.248;2023-10-13T08:17:08;12.47;;;4.80;;
20776;SDS011;10548;47.504;8.248;2023-10-13T08:19:37;11.90;;;4.20;;
20776;SDS011;10548;47.504;8.248;2023-10-13T08:22:12;9.93;;;4.20;;
20776;SDS011;10548;47.504;8.248;2023-10-13T08:24:58;12.13;;;3.90;;
20776;SDS011;10548;47.504;8.248;2023-10-13T08:27:45;15.30;;;3.93;;
20776;SDS011;10548;47.504;8.248;2023-10-13T08:30:16;8.73;;;4.07;;
20776;SDS011;10548;47.504;8.248;2023-10-13T08:32:54;9.30;;;3.60;;
20776;SDS011;10548;47.504;8.248;2023-10-13T08:35:23;11.57;;;3.73;;
20776;SDS011;10548;47.504;8.248;2023-10-13T08:38:17;10.13;;;4.07;;
20776;SDS011;10548;47.504;8.248;2023-10-13T08:40:57;13.03;;;4.17;;
20776;SDS011;10548;47.504;8.248;2023-10-13T08:44:04;16.27;;;4.03;;
20776;SDS011;10548;47.504;8.248;2023-10-13T08:46:31;13.87;;;4.43;;
20776;SDS011;10548;47.504;8.248;2023-10-13T08:49:19;11.03;;;3.63;;
20776;SDS011;10548;47.504;8.248;2023-10-13T08:51:49;13.13;;;4.03;;
20776;SDS011;10548;47.504;8.248;2023-10-13T08:54:37;13.07;;;4.17;;
20776;SDS011;10548;47.504;8.248;2023-10-13T08:57:12;11.00;;;4.27;;
20776;SDS011;10548;47.504;8.248;2023-10-13T08:59:58;11.50;;;3.30;;
20776;SDS011;10548;47.504;8.248;2023-10-13T09:02:46;12.13;;;3.97;;
20776;SDS011;10548;47.504;8.248;2023-10-13T09:05:26;8.60;;;3.40;;
20776;SDS011;10548;47.504;8.248;2023-10-13T09:08:28;9.53;;;3.83;;
20776;SDS011;10548;47.504;8.248;2023-10-13T09:11:13;9.07;;;4.00;;
20776;SDS011;10548;47.504;8.248;2023-10-13T09:13:46;8.57;;;3.57;;
20776;SDS011;10548;47.504;8.248;2023-10-13T09:16:14;10.73;;;3.97;;
20776;SDS011;10548;47.504;8.248;2023-10-13T09:19:03;9.60;;;3.87;;
20776;SDS011;10548;47.504;8.248;2023-10-13T09:21:39;10.40;;;3.93;;
20776;SDS011;10548;47.504;8.248;2023-10-13T09:24:15;14.80;;;4.57;;
20776;SDS011;10548;47.504;8.248;2023-10-13T09:26:53;12.70;;;4.20;;
20776;SDS011;10548;47.504;8.248;2023-10-13T09:29:23;12.83;;;4.40;;
20776;SDS011;10548;47.504;8.248;2023-10-13T09:32:03;12.57;;;4.90;;
20776;SDS011;10548;47.504;8.248;2023-10-13T09:34:38;14.57;;;3.97;;
20776;SDS011;10548;47.504;8.248;2023-10-13T09:37:11;12.67;;;4.27;;
20776;SDS011;10548;47.504;8.248;2023-10-13T09:39:41;10.73;;;4.60;;
20776;SDS011;10548;47.504;8.248;2023-10-13T09:42:15;15.40;;;4.40;;
20776;SDS011;10548;47.504;8.248;2023-10-13T09:44:45;12.23;;;3.90;;
20776;SDS011;10548;47.504;8.248;2023-10-13T09:47:22;13.47;;;4.10;;
20776;SDS011;10548;47.504;8.248;2023-10-13T09:49:59;17.07;;;3.73;;
20776;SDS011;10548;47.504;8.248;2023-10-13T09:52:32;12.60;;;4.27;;
20776;SDS011;10548;47.504;8.248;2023-10-13T09:55:23;20.47;;;4.57;;
20776;SDS011;10548;47.504;8.248;2023-10-13T09:58:03;9.23;;;3.60;;
20776;SDS011;10548;47.504;8.248;2023-10-13T10:00:45;11.63;;;3.90;;
20776;SDS011;10548;47.504;8.248;2023-10-13T10:03:25;15.23;;;3.67;;
20776;SDS011;10548;47.504;8.248;2023-10-13T10:06:21;17.23;;;4.27;;
20776;SDS011;10548;47.504;8.248;2023-10-13T10:09:06;15.90;;;4.80;;
20776;SDS011;10548;47.504;8.248;2023-10-13T10:15:17;11.33;;;3.97;;
20776;SDS011;10548;47.504;8.248;2023-10-13T10:18:01;12.20;;;3.63;;
20776;SDS011;10548;47.504;8.248;2023-10-13T10:20:33;8.13;;;3.60;;
20776;SDS011;10548;47.504;8.248;2023-10-13T10:23:23;14.97;;;3.93;;
20776;SDS011;10548;47.504;8.248;2023-10-13T10:25:52;13.63;;;3.77;;
20776;SDS011;10548;47.504;8.248;2023-10-13T10:28:40;11.83;;;3.60;;
20776;SDS011;10548;47.504;8.248;2023-10-13T10:31:09;12.63;;;3.90;;
20776;SDS011;10548;47.504;8.248;2023-10-13T10:33:40;15.87;;;3.77;;
20776;SDS011;10548;47.504;8.248;2023-10-13T10:36:08;10.70;;;3.60;;
20776;SDS011;10548;47.504;8.248;2023-10-13T10:38:56;13.33;;;3.47;;
20776;SDS011;10548;47.504;8.248;2023-10-13T10:41:28;15.57;;;3.90;;
20776;SDS011;10548;47.504;8.248;2023-10-13T10:44:14;13.70;;;3.43;;
20776;SDS011;10548;47.504;8.248;2023-10-13T10:47:15;15.40;;;3.67;;
20776;SDS011;10548;47.504;8.248;2023-10-13T10:49:59;8.70;;;3.10;;
20776;SDS011;10548;47.504;8.248;2023-10-13T10:52:33;11.87;;;3.43;;
20776;SDS011;10548;47.504;8.248;2023-10-13T10:55:04;15.73;;;3.90;;
20776;SDS011;10548;47.504;8.248;2023-10-13T10:57:37;10.10;;;3.10;;
20776;SDS011;10548;47.504;8.248;2023-10-13T11:00:05;7.53;;;3.60;;
20776;SDS011;10548;47.504;8.248;2023-10-13T11:02:41;12.10;;;3.27;;
20776;SDS011;10548;47.504;8.248;2023-10-13T11:05:08;9.63;;;3.40;;
20776;SDS011;10548;47.504;8.248;2023-10-13T11:07:36;11.23;;;3.50;;
20776;SDS011;10548;47.504;8.248;2023-10-13T11:10:07;7.20;;;3.23;;
20776;SDS011;10548;47.504;8.248;2023-10-13T11:12:53;8.43;;;2.90;;
20776;SDS011;10548;47.504;8.248;2023-10-13T11:15:28;10.93;;;3.10;;
20776;SDS011;10548;47.504;8.248;2023-10-13T11:18:01;10.13;;;3.20;;
20776;SDS011;10548;47.504;8.248;2023-10-13T11:20:32;13.67;;;3.40;;
20776;SDS011;10548;47.504;8.248;2023-10-13T11:23:01;9.37;;;3.10;;
20776;SDS011;10548;47.504;8.248;2023-10-13T11:25:38;10.33;;;3.20;;
20776;SDS011;10548;47.504;8.248;2023-10-13T11:28:12;10.23;;;3.40;;
20776;SDS011;10548;47.504;8.248;2023-10-13T11:30:47;10.87;;;3.17;;
20776;SDS011;10548;47.504;8.248;2023-10-13T11:33:18;11.13;;;3.07;;
20776;SDS011;10548;47.504;8.248;2023-10-13T11:35:50;10.07;;;3.37;;
20776;SDS011;10548;47.504;8.248;2023-10-13T11:38:27;13.47;;;3.23;;
20776;SDS011;10548;47.504;8.248;2023-10-13T11:41:10;9.43;;;2.70;;
20776;SDS011;10548;47.504;8.248;2023-10-13T11:43:45;8.40;;;3.00;;
20776;SDS011;10548;47.504;8.248;2023-10-13T11:46:24;11.30;;;3.60;;
20776;SDS011;10548;47.504;8.248;2023-10-13T11:49:24;7.47;;;3.03;;
20776;SDS011;10548;47.504;8.248;2023-10-13T11:52:09;16.83;;;3.63;;
20776;SDS011;10548;47.504;8.248;2023-10-13T11:54:43;15.50;;;3.67;;
20776;SDS011;10548;47.504;8.248;2023-10-13T11:57:10;17.23;;;3.53;;
20776;SDS011;10548;47.504;8.248;2023-10-13T11:59:38;5.93;;;2.70;;
20776;SDS011;10548;47.504;8.248;2023-10-13T12:02:11;9.67;;;2.90;;
20776;SDS011;10548;47.504;8.248;2023-10-13T12:05:14;11.40;;;3.10;;
20776;SDS011;10548;47.504;8.248;2023-10-13T12:07:44;12.57;;;3.30;;
20776;SDS011;10548;47.504;8.248;2023-10-13T12:10:18;10.20;;;3.70;;
20776;SDS011;10548;47.504;8.248;2023-10-13T12:13:05;14.93;;;3.83;;
20776;SDS011;10548;47.504;8.248;2023-10-13T12:15:35;11.47;;;3.00;;
20776;SDS011;10548;47.504;8.248;2023-10-13T12:18:15;8.93;;;3.10;;
20776;SDS011;10548;47.504;8.248;2023-10-13T12:20:43;9.53;;;3.20;;
20776;SDS011;10548;47.504;8.248;2023-10-13T12:23:12;11.07;;;3.57;;
20776;SDS011;10548;47.504;8.248;2023-10-13T12:25:44;19.97;;;3.20;;
20776;SDS011;10548;47.504;8.248;2023-10-13T12:28:22;10.93;;;2.97;;
20776;SDS011;10548;47.504;8.248;2023-10-13T12:30:50;12.77;;;3.30;;
20776;SDS011;10548;47.504;8.248;2023-10-13T12:33:20;5.80;;;2.80;;
20776;SDS011;10548;47.504;8.248;2023-10-13T12:35:58;9.67;;;2.97;;
20776;SDS011;10548;47.504;8.248;2023-10-13T12:39:00;7.53;;;3.30;;
20776;SDS011;10548;47.504;8.248;2023-10-13T12:41:53;5.67;;;2.73;;
20776;SDS011;10548;47.504;8.248;2023-10-13T12:44:39;10.83;;;3.20;;
20776;SDS011;10548;47.504;8.248;2023-10-13T12:47:24;8.73;;;2.83;;
20776;SDS011;10548;47.504;8.248;2023-10-13T12:50:10;8.53;;;3.00;;
20776;SDS011;10548;47.504;8.248;2023-10-13T12:52:50;8.90;;;3.20;;
20776;SDS011;10548;47.504;8.248;2023-10-13T12:55:18;15.73;;;4.03;;
20776;SDS011;10548;47.504;8.248;2023-10-13T12:57:47;7.50;;;2.90;;
20776;SDS011;10548;47.504;8.248;2023-10-13T13:00:15;9.00;;;2.70;;
20776;SDS011;10548;47.504;8.248;2023-10-13T13:02:51;8.30;;;2.83;;
20776;SDS011;10548;47.504;8.248;2023-10-13T13:05:22;9.50;;;2.90;;
20776;SDS011;10548;47.504;8.248;2023-10-13T13:07:55;11.93;;;3.40;;
20776;SDS011;10548;47.504;8.248;2023-10-13T13:10:22;27.50;;;3.33;;
20776;SDS011;10548;47.504;8.248;2023-10-13T13:13:02;12.60;;;3.30;;
20776;SDS011;10548;47.504;8.248;2023-10-13T13:15:30;11.50;;;3.73;;
20776;SDS011;10548;47.504;8.248;2023-10-13T13:17:58;12.77;;;3.10;;
20776;SDS011;10548;47.504;8.248;2023-10-13T13:20:40;12.03;;;3.40;;
20776;SDS011;10548;47.504;8.248;2023-10-13T13:23:10;6.53;;;2.77;;
20776;SDS011;10548;47.504;8.248;2023-10-13T13:25:44;11.47;;;3.60;;
20776;SDS011;10548;47.504;8.248;2023-10-13T13:28:12;11.10;;;3.33;;
20776;SDS011;10548;47.504;8.248;2023-10-13T13:30:40;14.13;;;4.30;;
20776;SDS011;10548;47.504;8.248;2023-10-13T13:33:08;10.90;;;3.10;;
20776;SDS011;10548;47.504;8.248;2023-10-13T13:35:38;15.43;;;3.60;;
20776;SDS011;10548;47.504;8.248;2023-10-13T13:38:09;6.87;;;3.07;;
20776;SDS011;10548;47.504;8.248;2023-10-13T13:40:39;12.30;;;3.47;;
20776;SDS011;10548;47.504;8.248;2023-10-13T13:43:08;10.23;;;3.90;;
20776;SDS011;10548;47.504;8.248;2023-10-13T13:45:44;9.67;;;3.50;;
20776;SDS011;10548;47.504;8.248;2023-10-13T13:48:12;20.70;;;3.63;;
20776;SDS011;10548;47.504;8.248;2023-10-13T13:50:43;9.80;;;3.13;;
20776;SDS011;10548;47.504;8.248;2023-10-13T13:53:11;19.77;;;3.53;;
20776;SDS011;10548;47.504;8.248;2023-10-13T13:55:40;10.23;;;3.13;;
20776;SDS011;10548;47.504;8.248;2023-10-13T13:58:08;24.23;;;3.93;;
20776;SDS011;10548;47.504;8.248;2023-10-13T14:00:37;16.80;;;2.90;;
20776;SDS011;10548;47.504;8.248;2023-10-13T14:03:05;10.30;;;3.00;;
20776;SDS011;10548;47.504;8.248;2023-10-13T14:05:42;14.23;;;3.37;;
20776;SDS011;10548;47.504;8.248;2023-10-13T14:08:10;8.70;;;3.37;;
20776;SDS011;10548;47.504;8.248;2023-10-13T14:10:42;9.97;;;3.50;;
20776;SDS011;10548;47.504;8.248;2023-10-13T14:13:28;12.00;;;3.13;;
20776;SDS011;10548;47.504;8.248;2023-10-13T14:16:16;11.63;;;2.87;;
20776;SDS011;10548;47.504;8.248;2023-10-13T14:18:47;14.27;;;3.17;;
20776;SDS011;10548;47.504;8.248;2023-10-13T14:21:16;11.40;;;3.45;;
20776;SDS011;10548;47.504;8.248;2023-10-13T14:23:45;8.45;;;3.20;;
20776;SDS011;10548;47.504;8.248;2023-10-13T14:26:13;8.52;;;3.67;;
20776;SDS011;10548;47.504;8.248;2023-10-13T14:28:41;7.73;;;3.00;;
20776;SDS011;10548;47.504;8.248;2023-10-13T14:31:47;8.52;;;2.80;;
20776;SDS011;10548;47.504;8.248;2023-10-13T14:34:15;9.27;;;3.05;;
20776;SDS011;10548;47.504;8.248;2023-10-13T14:36:43;8.82;;;2.78;;
20776;SDS011;10548;47.504;8.248;2023-10-13T14:39:14;10.57;;;3.03;;
20776;SDS011;10548;47.504;8.248;2023-10-13T14:41:42;9.73;;;2.70;;
20776;SDS011;10548;47.504;8.248;2023-10-13T14:44:09;16.30;;;3.45;;
20776;SDS011;10548;47.504;8.248;2023-10-13T14:46:39;8.63;;;2.85;;
20776;SDS011;10548;47.504;8.248;2023-10-13T14:49:07;9.05;;;3.38;;
20776;SDS011;10548;47.504;8.248;2023-10-13T14:51:34;8.63;;;3.00;;
20776;SDS011;10548;47.504;8.248;2023-10-13T14:54:06;10.10;;;2.93;;
20776;SDS011;10548;47.504;8.248;2023-10-13T14:56:34;5.63;;;2.80;;
20776;SDS011;10548;47.504;8.248;2023-10-13T14:59:01;10.43;;;2.92;;
20776;SDS011;10548;47.504;8.248;2023-10-13T15:01:31;9.40;;;3.23;;
20776;SDS011;10548;47.504;8.248;2023-10-13T15:03:59;5.07;;;2.70;;
20776;SDS011;10548;47.504;8.248;2023-10-13T15:06:27;13.20;;;2.90;;
20776;SDS011;10548;47.504;8.248;2023-10-13T15:08:57;12.32;;;2.47;;
20776;SDS011;10548;47.504;8.248;2023-10-13T15:11:25;22.88;;;3.15;;
20776;SDS011;10548;47.504;8.248;2023-10-13T15:13:53;6.63;;;3.23;;
20776;SDS011;10548;47.504;8.248;2023-10-13T15:16:24;7.00;;;2.75;;
20776;SDS011;10548;47.504;8.248;2023-10-13T15:18:53;9.50;;;3.00;;
20776;SDS011;10548;47.504;8.248;2023-10-13T15:21:24;11.43;;;3.45;;
20776;SDS011;10548;47.504;8.248;2023-10-13T15:24:01;8.00;;;3.00;;
20776;SDS011;10548;47.504;8.248;2023-10-13T15:26:44;8.65;;;2.65;;
20776;SDS011;10548;47.504;8.248;2023-10-13T15:29:18;15.00;;;3.10;;
20776;SDS011;10548;47.504;8.248;2023-10-13T15:31:51;4.73;;;2.53;;
20776;SDS011;10548;47.504;8.248;2023-10-13T15:34:45;8.60;;;2.97;;
20776;SDS011;10548;47.504;8.248;2023-10-13T15:37:13;10.67;;;2.90;;